createdAt,value
2023-09-23T00:02:19.385Z,99738.47
2023-09-23T00:05:22.799Z,99742.97
2023-09-23T00:08:25.649Z,99747.50
2023-09-23T00:11:29.777Z,99756.38
2023-09-23T00:14:32.832Z,99759.94
2023-09-23T00:17:39.229Z,99751.13
2023-09-23T00:20:42.182Z,99739.72
2023-09-23T00:23:46.525Z,99741.47
2023-09-23T00:26:49.977Z,99735.28
2023-09-23T00:29:53.227Z,99746.78
2023-09-23T00:32:56.106Z,99743.41
2023-09-23T00:36:00.659Z,99742.56
2023-09-23T00:39:04.626Z,99746.19
2023-09-23T00:42:13.444Z,99746.19
2023-09-23T00:45:17.652Z,99747.91
2023-09-23T00:48:22.685Z,99748.72
2023-09-23T00:51:25.896Z,99741.63
2023-09-23T00:54:28.920Z,99748.66
2023-09-23T00:57:31.913Z,99747.78
2023-09-23T01:00:38.248Z,99754.84
2023-09-23T01:03:40.915Z,99753.94
2023-09-23T01:06:44.380Z,99761.84
2023-09-23T01:09:49.387Z,99762.63
2023-09-23T01:12:52.342Z,99772.25
2023-09-23T01:15:55.305Z,99776.59
2023-09-23T01:18:59.573Z,99795.09
2023-09-23T01:22:02.841Z,99796.94
2023-09-23T01:25:06.066Z,99789.84
2023-09-23T01:28:14.914Z,99797.84
2023-09-23T01:31:22.614Z,99803.97
2023-09-23T01:34:26.158Z,99798.66
2023-09-23T01:37:28.962Z,99802.16
2023-09-23T01:40:32.866Z,99801.25
2023-09-23T01:43:35.847Z,99804.72
2023-09-23T01:46:39.099Z,99807.31
2023-09-23T01:49:44.355Z,99808.28
2023-09-23T01:52:47.298Z,99805.59
2023-09-23T01:55:50.483Z,99808.22
2023-09-23T01:58:53.112Z,99800.34
2023-09-23T02:01:55.920Z,99806.59
2023-09-23T02:04:58.823Z,99804.91
2023-09-23T02:08:01.318Z,99810.19
2023-09-23T02:11:04.169Z,99811.94
2023-09-23T02:14:07.359Z,99826.00
2023-09-23T02:17:10.651Z,99819.00
2023-09-23T02:20:20.830Z,99827.81
2023-09-23T02:23:24.975Z,99830.47
2023-09-23T02:26:28.662Z,99840.13
2023-09-23T02:29:32.201Z,99840.94
2023-09-23T02:32:35.753Z,99840.06
2023-09-23T02:35:38.538Z,99842.63
2023-09-23T02:38:44.017Z,99836.44
2023-09-23T02:41:51.909Z,99840.00
2023-09-23T02:44:55.667Z,99842.63
2023-09-23T02:47:59.586Z,99849.59
2023-09-23T02:51:04.926Z,99844.22
2023-09-23T02:54:07.695Z,99851.19
2023-09-23T02:57:13.485Z,99859.00
2023-09-23T03:00:21.426Z,99862.47
2023-09-23T03:03:25.611Z,99869.53
2023-09-23T03:06:28.397Z,99863.31
2023-09-23T03:09:33.869Z,99856.25
2023-09-23T03:12:42.143Z,99854.56
2023-09-23T03:15:54.785Z,99859.88
2023-09-23T03:19:11.820Z,99858.13
2023-09-23T03:22:14.868Z,99852.94
2023-09-23T03:25:19.203Z,99869.72
2023-09-23T03:28:22.644Z,99869.75
2023-09-23T03:31:25.673Z,99855.59
2023-09-23T03:34:30.625Z,99858.31
2023-09-23T03:37:33.626Z,99858.38
2023-09-23T03:40:36.343Z,99853.12
2023-09-23T03:43:40.379Z,99845.25
2023-09-23T03:46:53.589Z,99852.31
2023-09-23T03:49:57.871Z,99864.63
2023-09-23T03:53:00.754Z,99876.16
2023-09-23T03:56:04.530Z,99880.69
2023-09-23T03:59:08.502Z,99883.31
2023-09-23T04:02:11.951Z,99899.12
2023-09-23T04:05:18.251Z,99906.09
2023-09-23T04:08:21.105Z,99908.69
2023-09-23T04:11:24.238Z,99922.78
2023-09-23T04:14:28.400Z,99921.03
2023-09-23T04:17:31.657Z,99929.00
2023-09-23T04:20:34.384Z,99936.06
2023-09-23T04:23:37.331Z,99924.69
2023-09-23T04:26:40.207Z,99922.91
2023-09-23T04:29:42.917Z,99923.94
2023-09-23T04:32:45.408Z,99918.63
2023-09-23T04:35:52.604Z,99912.44
2023-09-23T04:38:55.138Z,99920.44
2023-09-23T04:41:58.085Z,99916.09
2023-09-23T04:45:00.484Z,99920.47
2023-09-23T04:48:05.310Z,99931.13
2023-09-23T04:51:10.143Z,99917.91
2023-09-23T04:54:13.140Z,99924.06
2023-09-23T04:57:15.900Z,99904.69
2023-09-23T05:00:20.042Z,99906.38
2023-09-23T05:03:24.961Z,99923.09
2023-09-23T05:06:27.874Z,99929.22
2023-09-23T05:09:31.750Z,99914.25
2023-09-23T05:12:35.210Z,99899.28
2023-09-23T05:15:38.117Z,99898.38
2023-09-23T05:18:40.809Z,99922.16
2023-09-23T05:21:46.240Z,99930.97
2023-09-23T05:24:49.841Z,99933.53
2023-09-23T05:27:56.589Z,99970.50
2023-09-23T05:31:00.112Z,99982.88
2023-09-23T05:34:02.628Z,99984.63
2023-09-23T05:37:05.677Z,100006.69
2023-09-23T05:40:32.116Z,100012.81
2023-09-23T05:43:34.813Z,100025.16
2023-09-23T05:46:39.292Z,100041.00
2023-09-23T05:49:45.249Z,100046.28
2023-09-23T05:52:49.464Z,100044.50
2023-09-23T05:55:52.395Z,100039.19
2023-09-23T05:58:55.197Z,100037.44
2023-09-23T06:01:58.253Z,100039.22
2023-09-23T06:05:02.537Z,100041.91
2023-09-23T06:08:05.908Z,100035.75
2023-09-23T06:11:11.652Z,100024.28
2023-09-23T06:14:14.283Z,100033.09
2023-09-23T06:17:18.059Z,100039.28
2023-09-23T06:20:20.952Z,100049.00
2023-09-23T06:23:24.354Z,100057.84
2023-09-23T06:26:27.317Z,100084.31
2023-09-23T06:29:31.569Z,100095.81
2023-09-23T06:32:34.472Z,100126.66
2023-09-23T06:35:37.314Z,100136.38
2023-09-23T06:38:39.727Z,100152.28
2023-09-23T06:41:42.443Z,100157.56
2023-09-23T06:44:46.497Z,100170.78
2023-09-23T06:47:49.617Z,100192.78
2023-09-23T06:51:03.612Z,100209.50
2023-09-23T06:54:06.473Z,100215.66
2023-09-23T06:57:09.231Z,100215.66
2023-09-23T07:00:12.660Z,100211.28
2023-09-23T07:03:15.394Z,100207.72
2023-09-23T07:06:18.506Z,100219.22
2023-09-23T07:09:21.247Z,100217.50
2023-09-23T07:12:25.741Z,100223.72
2023-09-23T07:15:38.562Z,100249.28
2023-09-23T07:18:41.523Z,100243.97
2023-09-23T07:21:43.975Z,100251.03
2023-09-23T07:24:47.824Z,100258.09
2023-09-23T07:27:50.746Z,100264.25
2023-09-23T07:30:53.786Z,100260.72
2023-09-23T07:33:56.498Z,100263.38
2023-09-23T07:36:59.481Z,100258.09
2023-09-23T07:40:02.524Z,100261.63
2023-09-23T07:43:05.955Z,100254.59
2023-09-23T07:46:08.515Z,100262.53
2023-09-23T07:49:11.333Z,100269.59
2023-09-23T07:52:14.053Z,100263.41
2023-09-23T07:55:17.241Z,100259.03
2023-09-23T07:58:19.799Z,100244.91
2023-09-23T08:01:22.565Z,100229.91
2023-09-23T08:04:25.615Z,100224.66
2023-09-23T08:07:28.159Z,100184.97
2023-09-23T08:10:32.270Z,100151.44
2023-09-23T08:13:35.015Z,100128.50
2023-09-23T08:16:38.002Z,100116.13
2023-09-23T08:19:40.712Z,100102.00
2023-09-23T08:22:43.690Z,100087.91
2023-09-23T08:25:47.033Z,100090.53
2023-09-23T08:28:49.801Z,100101.06
2023-09-23T08:31:52.434Z,100099.31
2023-09-23T08:34:55.569Z,100115.06
2023-09-23T08:37:58.346Z,100115.84
2023-09-23T08:41:05.743Z,100119.31
2023-09-23T08:44:08.713Z,100128.91
2023-09-23T08:47:12.335Z,100134.09
2023-09-23T08:50:16.808Z,100127.16
2023-09-23T08:53:22.707Z,100119.19
2023-09-23T08:56:25.572Z,100117.34
2023-09-23T08:59:29.084Z,100123.34
2023-09-23T09:02:31.846Z,100118.59
2023-09-23T09:05:41.611Z,100116.75
2023-09-23T09:08:44.570Z,100132.53
2023-09-23T09:11:54.892Z,100135.19
2023-09-23T09:14:57.528Z,100153.47
2023-09-23T09:18:03.200Z,100170.16
2023-09-23T09:21:09.425Z,100168.66
2023-09-23T09:24:12.132Z,100172.94
2023-09-23T09:27:15.539Z,100182.59
2023-09-23T09:30:20.299Z,100202.13
2023-09-23T09:33:47.482Z,100208.25
2023-09-23T09:36:56.686Z,100226.09
2023-09-23T09:40:01.923Z,100219.19
2023-09-23T09:43:05.448Z,100225.88
2023-09-23T09:46:11.224Z,100211.31
2023-09-23T09:49:17.409Z,100210.22
2023-09-23T09:52:24.660Z,100213.00
2023-09-23T09:55:27.605Z,100190.06
2023-09-23T09:58:40.097Z,100190.94
2023-09-23T10:01:43.936Z,100189.81
2023-09-23T10:04:48.824Z,100185.19
2023-09-23T10:07:58.272Z,100181.22
2023-09-23T10:11:06.069Z,100185.41
2023-09-23T10:14:17.605Z,100188.84
2023-09-23T10:17:28.259Z,100195.97
2023-09-23T10:20:35.012Z,100201.22
2023-09-23T10:23:42.153Z,100201.50
2023-09-23T10:26:47.000Z,100205.25
2023-09-23T10:29:50.047Z,100202.31
2023-09-23T10:32:52.730Z,100188.88
2023-09-23T10:35:58.117Z,100191.69
2023-09-23T10:39:07.811Z,100189.22
2023-09-23T10:42:15.108Z,100192.31
2023-09-23T10:45:18.458Z,100206.34
2023-09-23T10:48:21.563Z,100199.16
2023-09-23T10:51:25.039Z,100199.13
2023-09-23T10:54:28.813Z,100204.38
2023-09-23T10:57:31.759Z,100205.19
2023-09-23T11:00:34.736Z,100210.16
2023-09-23T11:03:42.340Z,100199.97
2023-09-23T11:06:45.042Z,100218.59
2023-09-23T11:09:48.296Z,100230.91
2023-09-23T11:12:51.065Z,100238.00
2023-09-23T11:15:54.047Z,100236.25
2023-09-23T11:19:06.977Z,100236.00
2023-09-23T11:22:09.672Z,100232.03
2023-09-23T11:25:13.584Z,100242.06
2023-09-23T11:28:19.693Z,100232.66
2023-09-23T11:31:22.385Z,100243.03
2023-09-23T11:34:25.409Z,100238.84
2023-09-23T11:37:28.404Z,100239.22
2023-09-23T11:40:32.988Z,100238.19
2023-09-23T11:43:35.378Z,100244.72
2023-09-23T11:46:38.327Z,100229.19
2023-09-23T11:49:40.813Z,100232.63
2023-09-23T11:52:43.920Z,100243.22
2023-09-23T11:55:46.925Z,100264.72
2023-09-23T11:59:05.930Z,100257.78
2023-09-23T12:02:10.723Z,100263.06
2023-09-23T12:05:13.800Z,100262.50
2023-09-23T12:08:16.931Z,100257.47
2023-09-23T12:11:22.754Z,100268.53
2023-09-23T12:14:25.603Z,100282.81
2023-09-23T12:17:28.754Z,100305.25
2023-09-23T12:20:33.476Z,100320.34
2023-09-23T12:23:37.466Z,100346.22
2023-09-23T12:26:40.262Z,100346.13
2023-09-23T12:29:43.004Z,100335.47
2023-09-23T12:32:46.062Z,100325.03
2023-09-23T12:35:48.898Z,100308.44
2023-09-23T12:38:51.558Z,100311.25
2023-09-23T12:41:54.304Z,100313.12
2023-09-23T12:44:56.974Z,100317.81
2023-09-23T12:48:00.025Z,100320.59
2023-09-23T12:51:02.858Z,100310.88
2023-09-23T12:54:09.506Z,100335.78
2023-09-23T12:57:12.258Z,100319.94
2023-09-23T13:00:15.937Z,100322.63
2023-09-23T13:03:18.544Z,100325.37
2023-09-23T13:06:21.757Z,100323.72
2023-09-23T13:09:24.491Z,100341.47
2023-09-23T13:12:27.620Z,100339.69
2023-09-23T13:15:30.249Z,100348.44
2023-09-23T13:18:33.326Z,100354.59
2023-09-23T13:21:36.166Z,100342.28
2023-09-23T13:24:38.946Z,100344.03
2023-09-23T13:27:42.523Z,100332.56
2023-09-23T13:30:45.746Z,100320.12
2023-09-23T13:33:49.559Z,100306.09
2023-09-23T13:36:52.305Z,100319.38
2023-09-23T13:39:56.008Z,100331.81
2023-09-23T13:42:58.958Z,100336.22
2023-09-23T13:46:01.607Z,100345.00
2023-09-23T13:49:07.674Z,100361.72
2023-09-23T13:52:11.350Z,100348.38
2023-09-23T13:55:14.171Z,100346.66
2023-09-23T13:58:16.880Z,100350.19
2023-09-23T14:01:20.239Z,100353.75
2023-09-23T14:04:23.642Z,100364.41
2023-09-23T14:07:26.465Z,100370.59
2023-09-23T14:10:29.556Z,100387.38
2023-09-23T14:13:32.759Z,100383.84
2023-09-23T14:16:35.994Z,100368.87
2023-09-23T14:19:38.733Z,100364.47
2023-09-23T14:22:46.662Z,100354.81
2023-09-23T14:25:49.662Z,100360.19
2023-09-23T14:28:52.498Z,100356.72
2023-09-23T14:31:55.231Z,100353.25
2023-09-23T14:34:58.137Z,100349.75
2023-09-23T14:38:00.612Z,100349.75
2023-09-23T14:41:03.845Z,100347.12
2023-09-23T14:44:07.033Z,100344.50
2023-09-23T14:47:09.777Z,100335.66
2023-09-23T14:50:12.426Z,100333.03
2023-09-23T14:53:17.334Z,100336.59
2023-09-23T14:56:20.153Z,100333.91
2023-09-23T14:59:23.169Z,100342.78
2023-09-23T15:02:25.883Z,100346.31
2023-09-23T15:05:28.754Z,100353.38
2023-09-23T15:08:31.392Z,100342.81
2023-09-23T15:11:34.581Z,100347.22
2023-09-23T15:14:37.347Z,100353.38
2023-09-23T15:17:40.566Z,100353.41
2023-09-23T15:20:43.569Z,100354.28
2023-09-23T15:23:46.499Z,100352.53
2023-09-23T15:26:49.073Z,100359.59
2023-09-23T15:29:53.402Z,100364.00
2023-09-23T15:32:56.321Z,100382.50
2023-09-23T15:35:59.077Z,100375.44
2023-09-23T15:39:01.796Z,100382.47
2023-09-23T15:42:04.939Z,100385.13
2023-09-23T15:45:08.230Z,100381.59
2023-09-23T15:48:11.469Z,100387.75
2023-09-23T15:51:16.458Z,100384.25
2023-09-23T15:54:19.475Z,100377.19
2023-09-23T15:57:22.483Z,100364.00
2023-09-23T16:00:25.289Z,100356.94
2023-09-23T16:03:28.206Z,100354.31
2023-09-23T16:06:30.771Z,100355.19
2023-09-23T16:09:33.582Z,100360.47
2023-09-23T16:12:36.029Z,100363.13
2023-09-23T16:15:39.073Z,100374.53
2023-09-23T16:18:42.310Z,100390.41
2023-09-23T16:21:45.034Z,100387.75
2023-09-23T16:24:47.938Z,100393.91
2023-09-23T16:27:51.043Z,100389.50
2023-09-23T16:30:53.831Z,100411.50
2023-09-23T16:33:57.997Z,100412.38
2023-09-23T16:37:00.922Z,100413.25
2023-09-23T16:40:07.434Z,100421.19
2023-09-23T16:43:10.257Z,100428.22
2023-09-23T16:46:13.305Z,100430.84
2023-09-23T16:49:16.127Z,100434.38
2023-09-23T16:52:19.128Z,100441.34
2023-09-23T16:55:21.687Z,100443.09
2023-09-23T16:58:24.733Z,100453.66
2023-09-23T17:01:27.426Z,100462.47
2023-09-23T17:04:30.557Z,100468.63
2023-09-23T17:07:33.434Z,100484.44
2023-09-23T17:10:36.232Z,100490.59
2023-09-23T17:13:39.938Z,100493.25
2023-09-23T17:16:43.204Z,100500.22
2023-09-23T17:19:46.580Z,100502.88
2023-09-23T17:22:49.571Z,100503.72
2023-09-23T17:25:52.914Z,100499.34
2023-09-23T17:29:00.368Z,100490.50
2023-09-23T17:32:03.248Z,100484.34
2023-09-23T17:35:06.541Z,100480.81
2023-09-23T17:38:09.825Z,100481.69
2023-09-23T17:41:15.212Z,100482.56
2023-09-23T17:44:18.041Z,100464.97
2023-09-23T17:47:21.123Z,100454.41
2023-09-23T17:50:23.911Z,100456.16
2023-09-23T17:53:29.945Z,100447.34
2023-09-23T17:56:32.696Z,100441.16
2023-09-23T17:59:37.991Z,100434.13
2023-09-23T18:02:41.948Z,100427.06
2023-09-23T18:05:45.613Z,100423.50
2023-09-23T18:08:48.362Z,100426.13
2023-09-23T18:11:53.317Z,100420.81
2023-09-23T18:14:56.396Z,100407.59
2023-09-23T18:18:00.164Z,100406.66
2023-09-23T18:21:03.264Z,100400.50
2023-09-23T18:24:07.250Z,100396.13
2023-09-23T18:27:09.972Z,100398.72
2023-09-23T18:30:14.248Z,100397.81
2023-09-23T18:33:17.732Z,100384.62
2023-09-23T18:36:21.020Z,100376.72
2023-09-23T18:39:24.183Z,100396.03
2023-09-23T18:42:26.951Z,100391.59
2023-09-23T18:45:29.756Z,100388.06
2023-09-23T18:48:33.573Z,100389.84
2023-09-23T18:51:37.462Z,100389.84
2023-09-23T18:54:40.341Z,100380.16
2023-09-23T18:57:42.978Z,100386.28
2023-09-23T19:00:46.498Z,100393.31
2023-09-23T19:03:49.629Z,100393.34
2023-09-23T19:06:53.072Z,100403.00
2023-09-23T19:09:56.464Z,100414.41
2023-09-23T19:12:59.449Z,100424.94
2023-09-23T19:16:02.561Z,100445.97
2023-09-23T19:19:05.653Z,100453.00
2023-09-23T19:22:09.376Z,100466.12
2023-09-23T19:25:12.436Z,100476.69
2023-09-23T19:28:15.557Z,100471.41
2023-09-23T19:31:20.356Z,100467.94
2023-09-23T19:34:27.803Z,100470.56
2023-09-23T19:37:31.045Z,100468.81
2023-09-23T19:40:37.421Z,100469.72
2023-09-23T19:43:40.596Z,100458.31
2023-09-23T19:46:43.460Z,100462.72
2023-09-23T19:49:46.525Z,100449.53
2023-09-23T19:52:49.405Z,100444.28
2023-09-23T19:55:54.270Z,100440.75
2023-09-23T19:58:56.761Z,100435.47
2023-09-23T20:02:00.850Z,100424.03
2023-09-23T20:05:04.048Z,100440.72
2023-09-23T20:08:07.316Z,100437.16
2023-09-23T20:11:10.199Z,100438.03
2023-09-23T20:14:13.868Z,100445.00
2023-09-23T20:17:17.667Z,100452.84
2023-09-23T20:20:20.582Z,100463.28
2023-09-23T20:23:27.433Z,100484.31
2023-09-23T20:26:31.088Z,100481.66
2023-09-23T20:29:34.105Z,100474.69
2023-09-23T20:32:39.381Z,100465.91
2023-09-23T20:35:43.348Z,100454.47
2023-09-23T20:38:46.315Z,100455.38
2023-09-23T20:41:49.941Z,100455.38
2023-09-23T20:44:52.756Z,100450.97
2023-09-23T20:47:56.368Z,100453.63
2023-09-23T20:50:59.272Z,100446.56
2023-09-23T20:54:02.509Z,100438.75
2023-09-23T20:57:05.807Z,100426.47
2023-09-23T21:00:09.493Z,100423.84
2023-09-23T21:03:14.204Z,100414.19
2023-09-23T21:06:19.161Z,100400.13
2023-09-23T21:09:21.576Z,100406.19
2023-09-23T21:12:24.244Z,100410.53
2023-09-23T21:15:27.084Z,100407.94
2023-09-23T21:18:30.272Z,100416.69
2023-09-23T21:21:33.089Z,100430.66
2023-09-23T21:24:35.886Z,100423.56
2023-09-23T21:27:38.328Z,100426.19
2023-09-23T21:30:41.043Z,100438.50
2023-09-23T21:33:44.361Z,100422.75
2023-09-23T21:36:47.373Z,100411.34
2023-09-23T21:39:49.926Z,100409.59
2023-09-23T21:42:52.912Z,100412.12
2023-09-23T21:45:56.295Z,100416.59
2023-09-23T21:48:59.144Z,100421.03
2023-09-23T21:52:01.974Z,100421.00
2023-09-23T21:55:06.691Z,100424.53
2023-09-23T21:58:09.345Z,100441.22
2023-09-23T22:01:12.327Z,100435.94
2023-09-23T22:04:15.646Z,100428.91
2023-09-23T22:07:18.522Z,100430.63
2023-09-23T22:10:22.494Z,100428.75
2023-09-23T22:13:24.936Z,100428.78
2023-09-23T22:16:27.916Z,100424.44
2023-09-23T22:19:32.304Z,100416.53
2023-09-23T22:22:35.285Z,100413.03
2023-09-23T22:25:41.014Z,100413.91
2023-09-23T22:28:44.147Z,100409.50
2023-09-23T22:31:46.818Z,100407.75
2023-09-23T22:34:50.360Z,100420.09
2023-09-23T22:37:53.172Z,100417.47
2023-09-23T22:40:56.838Z,100417.47
2023-09-23T22:44:00.024Z,100420.06
2023-09-23T22:47:05.054Z,100431.44
2023-09-23T22:50:09.662Z,100432.28
2023-09-23T22:53:12.472Z,100441.94
2023-09-23T22:56:14.968Z,100457.78
2023-09-23T22:59:17.929Z,100480.50
2023-09-23T23:02:20.630Z,100488.44
2023-09-23T23:05:27.154Z,100499.84
2023-09-23T23:08:31.317Z,100497.16
2023-09-23T23:11:34.085Z,100492.81
2023-09-23T23:14:36.558Z,100506.91
2023-09-23T23:17:40.038Z,100503.47
2023-09-23T23:20:42.546Z,100493.78
2023-09-23T23:23:45.528Z,100489.44
2023-09-23T23:26:48.129Z,100488.50
2023-09-23T23:29:53.054Z,100502.50
2023-09-23T23:32:56.045Z,100496.41
2023-09-23T23:36:00.141Z,100483.28
2023-09-23T23:39:06.825Z,100471.91
2023-09-23T23:42:09.566Z,100452.62
2023-09-23T23:45:12.020Z,100451.72
2023-09-23T23:48:15.034Z,100448.16
2023-09-23T23:51:17.809Z,100460.37
2023-09-23T23:54:20.580Z,100487.50
2023-09-23T23:57:24.139Z,100496.19
